createdAt,value
2023-02-04T00:00:15.723Z,3.58
2023-02-04T00:02:42.159Z,2.90
2023-02-04T00:05:10.992Z,3.65
2023-02-04T00:07:38.458Z,3.00
2023-02-04T00:10:06.629Z,4.00
2023-02-04T00:12:34.420Z,3.03
2023-02-04T00:15:01.079Z,3.72
2023-02-04T00:17:27.725Z,3.45
2023-02-04T00:19:54.267Z,2.97
2023-02-04T00:22:21.122Z,2.92
2023-02-04T00:24:49.903Z,3.88
2023-02-04T00:27:16.762Z,3.92
2023-02-04T00:29:43.112Z,5.63
2023-02-04T00:32:10.036Z,3.05
2023-02-04T00:34:36.557Z,3.53
2023-02-04T00:37:03.378Z,3.22
2023-02-04T00:39:29.961Z,2.97
2023-02-04T00:41:56.437Z,3.63
2023-02-04T00:44:22.895Z,4.63
2023-02-04T00:46:49.463Z,3.00
2023-02-04T00:49:15.847Z,3.45
2023-02-04T00:51:46.405Z,3.42
2023-02-04T00:54:14.564Z,3.25
2023-02-04T00:56:42.049Z,3.97
2023-02-04T00:59:08.676Z,3.13
2023-02-04T01:01:35.381Z,4.05
2023-02-04T01:04:01.919Z,4.63
2023-02-04T01:06:28.323Z,3.60
2023-02-04T01:08:54.849Z,4.15
2023-02-04T01:11:21.492Z,3.42
2023-02-04T01:13:47.933Z,3.85
2023-02-04T01:16:14.885Z,3.88
2023-02-04T01:18:41.547Z,4.15
2023-02-04T01:21:08.000Z,4.53
2023-02-04T01:23:34.566Z,4.28
2023-02-04T01:26:00.988Z,3.20
2023-02-04T01:28:27.869Z,3.45
2023-02-04T01:30:54.611Z,4.05
2023-02-04T01:33:21.670Z,5.13
2023-02-04T01:35:48.412Z,4.57
2023-02-04T01:38:14.831Z,4.32
2023-02-04T01:40:42.749Z,4.45
2023-02-04T01:43:10.186Z,5.05
2023-02-04T01:45:38.586Z,4.30
2023-02-04T01:48:07.487Z,4.28
2023-02-04T01:50:34.584Z,4.47
2023-02-04T01:53:01.544Z,3.53
2023-02-04T01:55:31.366Z,3.92
2023-02-04T01:57:58.945Z,4.93
2023-02-04T02:00:27.999Z,3.60
2023-02-04T02:02:54.972Z,4.72
2023-02-04T02:05:24.669Z,4.10
2023-02-04T02:07:53.961Z,5.00
2023-02-04T02:10:24.374Z,3.75
2023-02-04T02:12:51.302Z,3.80
2023-02-04T02:15:18.984Z,3.97
2023-02-04T02:17:45.740Z,3.53
2023-02-04T02:20:15.841Z,2.83
2023-02-04T02:22:54.442Z,3.83
2023-02-04T02:25:21.306Z,3.55
2023-02-04T02:27:47.988Z,3.92
2023-02-04T02:30:17.605Z,3.00
2023-02-04T02:32:46.307Z,4.32
2023-02-04T02:35:13.652Z,4.15
2023-02-04T02:37:40.199Z,3.80
2023-02-04T02:40:07.327Z,3.72
2023-02-04T02:42:33.934Z,3.60
2023-02-04T02:45:03.295Z,3.30
2023-02-04T02:47:30.123Z,4.18
2023-02-04T02:49:56.934Z,4.18
2023-02-04T02:52:23.311Z,4.15
2023-02-04T02:54:50.187Z,4.18
2023-02-04T02:57:21.048Z,4.13
2023-02-04T02:59:48.293Z,3.22
2023-02-04T03:02:21.920Z,4.20
2023-02-04T03:04:54.649Z,3.67
2023-02-04T03:07:22.596Z,3.88
2023-02-04T03:09:49.380Z,3.78
2023-02-04T03:12:15.981Z,3.42
2023-02-04T03:14:42.578Z,4.00
2023-02-04T03:17:10.599Z,3.67
2023-02-04T03:19:37.972Z,3.72
2023-02-04T03:22:05.561Z,3.13
2023-02-04T03:24:33.683Z,3.97
2023-02-04T03:27:00.972Z,4.55
2023-02-04T03:29:29.639Z,3.78
2023-02-04T03:31:56.841Z,3.30
2023-02-04T03:34:23.351Z,2.83
2023-02-04T03:36:49.830Z,3.55
2023-02-04T03:39:16.380Z,4.25
2023-02-04T03:41:43.023Z,3.28
2023-02-04T03:44:09.427Z,3.58
2023-02-04T03:46:36.076Z,3.90
2023-02-04T03:49:02.536Z,4.60
2023-02-04T03:51:29.171Z,4.10
2023-02-04T03:53:55.543Z,4.95
2023-02-04T03:56:22.038Z,4.43
2023-02-04T03:58:48.586Z,4.80
2023-02-04T04:01:15.123Z,3.10
2023-02-04T04:03:41.546Z,4.20
2023-02-04T04:06:09.924Z,3.22
2023-02-04T04:08:37.909Z,3.40
2023-02-04T04:11:04.350Z,4.03
2023-02-04T04:13:30.788Z,3.28
2023-02-04T04:15:57.490Z,3.00
2023-02-04T04:18:24.008Z,4.90
2023-02-04T04:20:50.381Z,3.70
2023-02-04T04:23:16.871Z,3.42
2023-02-04T04:25:43.291Z,3.80
2023-02-04T04:28:09.717Z,3.28
2023-02-04T04:30:36.256Z,3.53
2023-02-04T04:33:02.685Z,3.15
2023-02-04T04:35:29.056Z,3.63
2023-02-04T04:37:55.648Z,3.22
2023-02-04T04:40:22.064Z,3.75
2023-02-04T04:42:48.568Z,3.38
2023-02-04T04:45:14.970Z,4.03
2023-02-04T04:47:41.346Z,3.55
2023-02-04T04:50:08.527Z,3.35
2023-02-04T04:52:34.977Z,3.45
2023-02-04T04:55:01.645Z,3.80
2023-02-04T04:57:28.114Z,2.80
2023-02-04T04:59:54.818Z,3.35
2023-02-04T05:02:21.406Z,3.95
2023-02-04T05:04:47.876Z,4.25
2023-02-04T05:07:14.481Z,3.25
2023-02-04T05:09:41.250Z,3.47
2023-02-04T05:12:07.801Z,3.47
2023-02-04T05:14:34.478Z,3.63
2023-02-04T05:17:01.096Z,2.88
2023-02-04T05:19:27.501Z,3.33
2023-02-04T05:21:54.087Z,2.72
2023-02-04T05:24:20.749Z,3.50
2023-02-04T05:26:47.306Z,2.45
2023-02-04T05:29:13.726Z,2.65
2023-02-04T05:31:40.661Z,3.42
2023-02-04T05:34:07.122Z,3.13
2023-02-04T05:36:33.698Z,3.03
2023-02-04T05:39:00.138Z,3.70
2023-02-04T05:41:26.720Z,3.55
2023-02-04T05:43:53.133Z,4.90
2023-02-04T05:46:19.658Z,4.25
2023-02-04T05:48:46.065Z,4.80
2023-02-04T05:51:12.618Z,6.32
2023-02-04T05:53:39.054Z,5.50
2023-02-04T05:56:05.713Z,6.50
2023-02-04T05:58:33.615Z,6.03
2023-02-04T06:01:01.728Z,6.78
2023-02-04T06:03:29.464Z,4.65
2023-02-04T06:05:56.897Z,4.53
2023-02-04T06:08:24.129Z,4.30
2023-02-04T06:10:50.700Z,4.10
2023-02-04T06:13:17.092Z,3.90
2023-02-04T06:15:43.618Z,5.20
2023-02-04T06:18:10.330Z,3.67
2023-02-04T06:20:36.857Z,4.18
2023-02-04T06:23:03.283Z,3.42
2023-02-04T06:25:29.843Z,3.40
2023-02-04T06:27:56.309Z,5.28
2023-02-04T06:30:22.778Z,4.28
2023-02-04T06:32:49.156Z,4.57
2023-02-04T06:35:16.572Z,4.47
2023-02-04T06:37:43.393Z,4.63
2023-02-04T06:40:11.227Z,4.25
2023-02-04T06:42:37.668Z,4.78
2023-02-04T06:45:04.762Z,5.00
2023-02-04T06:47:31.276Z,5.05
2023-02-04T06:49:57.795Z,5.65
2023-02-04T06:52:24.203Z,5.20
2023-02-04T06:54:50.735Z,5.47
2023-02-04T06:57:17.136Z,5.72
2023-02-04T06:59:43.693Z,5.03
2023-02-04T07:02:11.425Z,4.97
2023-02-04T07:04:37.884Z,6.47
2023-02-04T07:07:07.056Z,6.10
2023-02-04T07:09:33.642Z,5.82
2023-02-04T07:12:00.077Z,5.72
2023-02-04T07:14:26.688Z,6.25
2023-02-04T07:16:53.184Z,6.53
2023-02-04T07:19:21.181Z,6.60
2023-02-04T07:21:48.047Z,6.65
2023-02-04T07:24:14.532Z,5.80
2023-02-04T07:26:40.954Z,6.45
2023-02-04T07:29:14.457Z,5.40
2023-02-04T07:31:41.828Z,6.90
2023-02-04T07:34:08.361Z,7.20
2023-02-04T07:36:34.806Z,6.93
2023-02-04T07:39:01.445Z,7.15
2023-02-04T07:41:27.913Z,6.60
2023-02-04T07:43:54.475Z,7.00
2023-02-04T07:46:20.991Z,7.25
2023-02-04T07:48:47.609Z,7.07
2023-02-04T07:51:13.996Z,7.80
2023-02-04T07:53:40.611Z,7.90
2023-02-04T07:56:07.437Z,7.93
2023-02-04T07:58:33.964Z,6.68
2023-02-04T08:01:01.297Z,8.73
2023-02-04T08:03:28.106Z,9.02
2023-02-04T08:05:54.842Z,7.53
2023-02-04T08:08:21.555Z,7.85
2023-02-04T08:10:48.073Z,9.02
2023-02-04T08:13:14.745Z,9.35
2023-02-04T08:15:41.513Z,9.48
2023-02-04T08:18:07.972Z,8.98
2023-02-04T08:20:34.730Z,9.43
2023-02-04T08:23:01.406Z,8.73
2023-02-04T08:25:28.963Z,10.20
2023-02-04T08:27:55.532Z,9.68
2023-02-04T08:30:22.158Z,9.35
2023-02-04T08:32:48.538Z,11.32
2023-02-04T08:35:15.187Z,11.65
2023-02-04T08:37:41.861Z,11.43
2023-02-04T08:40:08.952Z,10.43
2023-02-04T08:42:35.469Z,9.63
2023-02-04T08:45:03.901Z,9.68
2023-02-04T08:47:30.274Z,9.82
2023-02-04T08:49:56.817Z,10.88
2023-02-04T08:52:23.760Z,10.15
2023-02-04T08:54:50.265Z,10.25
2023-02-04T08:57:16.703Z,11.38
2023-02-04T08:59:45.968Z,10.43
2023-02-04T09:02:12.619Z,8.68
2023-02-04T09:04:39.032Z,9.68
2023-02-04T09:07:05.732Z,10.23
2023-02-04T09:09:32.112Z,10.05
2023-02-04T09:11:58.706Z,10.80
2023-02-04T09:14:25.134Z,9.57
2023-02-04T09:16:51.582Z,9.77
2023-02-04T09:19:23.854Z,9.55
2023-02-04T09:21:50.339Z,9.43
2023-02-04T09:24:16.782Z,10.27
2023-02-04T09:26:43.195Z,10.52
2023-02-04T09:29:09.704Z,9.10
2023-02-04T09:31:36.147Z,10.65
2023-02-04T09:34:02.664Z,9.32
2023-02-04T09:36:30.584Z,9.57
2023-02-04T09:38:56.999Z,9.98
2023-02-04T09:41:23.592Z,9.38
2023-02-04T09:43:50.628Z,10.55
2023-02-04T09:46:24.395Z,9.15
2023-02-04T09:48:51.513Z,9.45
2023-02-04T09:51:21.995Z,10.07
2023-02-04T09:53:49.621Z,8.38
2023-02-04T09:56:17.136Z,10.40
2023-02-04T09:58:44.036Z,8.57
2023-02-04T10:01:19.250Z,9.38
2023-02-04T10:03:48.366Z,8.00
2023-02-04T10:06:17.840Z,9.57
2023-02-04T10:08:46.185Z,8.38
2023-02-04T10:11:14.537Z,8.25
2023-02-04T10:13:48.556Z,8.02
2023-02-04T10:16:18.967Z,8.30
2023-02-04T10:18:45.756Z,7.65
2023-02-04T10:21:18.307Z,8.50
2023-02-04T10:23:48.968Z,7.90
2023-02-04T10:26:16.705Z,8.35
2023-02-04T10:28:44.097Z,7.55
2023-02-04T10:31:31.045Z,8.30
2023-02-04T10:34:04.971Z,7.18
2023-02-04T10:36:31.609Z,7.30
2023-02-04T10:39:03.891Z,6.75
2023-02-04T10:41:30.406Z,6.35
2023-02-04T10:44:10.395Z,6.40
2023-02-04T10:46:38.033Z,5.75
2023-02-04T10:49:05.731Z,6.75
2023-02-04T10:51:33.137Z,7.22
2023-02-04T10:54:18.825Z,6.95
2023-02-04T10:56:45.575Z,7.03
2023-02-04T10:59:26.930Z,6.93
2023-02-04T11:01:56.691Z,8.02
2023-02-04T11:04:24.182Z,7.65
2023-02-04T11:06:52.659Z,7.50
2023-02-04T11:09:19.725Z,7.97
2023-02-04T11:11:48.427Z,8.52
2023-02-04T11:14:28.213Z,6.60
2023-02-04T11:17:00.260Z,7.18
2023-02-04T11:19:37.149Z,7.30
2023-02-04T11:22:24.039Z,7.50
2023-02-04T11:24:51.968Z,8.23
2023-02-04T11:27:37.153Z,6.22
2023-02-04T11:30:23.233Z,7.00
2023-02-04T11:33:02.096Z,6.40
2023-02-04T11:35:30.239Z,6.10
2023-02-04T11:37:58.595Z,5.65
2023-02-04T11:40:26.972Z,6.80
2023-02-04T11:43:02.560Z,6.28
2023-02-04T11:45:31.224Z,5.30
2023-02-04T11:48:02.153Z,6.68
2023-02-04T11:50:32.343Z,6.47
2023-02-04T11:53:01.724Z,6.38
2023-02-04T11:55:30.863Z,5.85
2023-02-04T11:57:58.190Z,7.15
2023-02-04T12:00:30.315Z,5.60
2023-02-04T12:03:06.358Z,6.18
2023-02-04T12:05:54.759Z,6.40
2023-02-04T12:08:24.071Z,5.63
2023-02-04T12:11:02.817Z,7.20
2023-02-04T12:13:30.955Z,6.15
2023-02-04T12:16:06.020Z,6.05
2023-02-04T12:18:34.680Z,6.13
2023-02-04T12:21:02.663Z,6.63
2023-02-04T12:23:30.148Z,6.05
2023-02-04T12:25:57.246Z,5.15
2023-02-04T12:28:24.131Z,4.70
2023-02-04T12:30:50.773Z,4.63
2023-02-04T12:33:17.599Z,5.03
2023-02-04T12:35:44.029Z,5.20
2023-02-04T12:38:10.707Z,4.18
2023-02-04T12:40:37.950Z,4.15
2023-02-04T12:43:04.553Z,4.90
2023-02-04T12:45:31.552Z,5.47
2023-02-04T12:47:58.470Z,4.95
2023-02-04T12:50:26.033Z,4.95
2023-02-04T12:52:54.314Z,5.18
2023-02-04T12:55:22.399Z,4.65
2023-02-04T12:57:49.503Z,5.05
2023-02-04T13:00:18.041Z,5.57
2023-02-04T13:02:44.833Z,5.03
2023-02-04T13:05:12.468Z,4.93
2023-02-04T13:07:40.670Z,5.22
2023-02-04T13:10:09.343Z,4.90
2023-02-04T13:12:35.880Z,5.60
2023-02-04T13:15:02.410Z,4.57
2023-02-04T13:17:29.159Z,4.80
2023-02-04T13:19:55.524Z,5.22
2023-02-04T13:22:22.049Z,5.88
2023-02-04T13:24:48.560Z,4.70
2023-02-04T13:27:15.335Z,5.07
2023-02-04T13:29:42.233Z,5.40
2023-02-04T13:32:09.493Z,5.75
2023-02-04T13:34:36.250Z,4.97
2023-02-04T13:37:02.676Z,9.32
2023-02-04T13:39:30.005Z,8.02
2023-02-04T13:41:56.392Z,5.10
2023-02-04T13:44:22.940Z,5.90
2023-02-04T13:46:49.593Z,4.90
2023-02-04T13:49:16.032Z,4.30
2023-02-04T13:51:42.542Z,5.72
2023-02-04T13:54:09.119Z,4.50
2023-02-04T13:56:36.500Z,5.43
2023-02-04T13:59:04.266Z,4.53
2023-02-04T14:01:31.606Z,5.30
2023-02-04T14:03:58.137Z,4.95
2023-02-04T14:06:33.070Z,5.20
2023-02-04T14:09:00.751Z,4.18
2023-02-04T14:11:31.272Z,5.15
2023-02-04T14:13:57.783Z,4.78
2023-02-04T14:16:24.340Z,4.85
2023-02-04T14:18:50.793Z,3.50
2023-02-04T14:21:17.520Z,4.38
2023-02-04T14:23:43.995Z,4.68
2023-02-04T14:26:10.604Z,5.32
2023-02-04T14:28:37.011Z,4.13
2023-02-04T14:31:03.523Z,4.72
2023-02-04T14:33:30.266Z,4.18
2023-02-04T14:35:57.011Z,4.90
2023-02-04T14:38:23.500Z,4.28
2023-02-04T14:40:50.045Z,4.93
2023-02-04T14:43:16.664Z,3.40
2023-02-04T14:45:43.090Z,4.40
2023-02-04T14:48:09.659Z,3.92
2023-02-04T14:50:36.205Z,5.40
2023-02-04T14:53:03.124Z,5.13
2023-02-04T14:55:29.552Z,5.82
2023-02-04T14:57:56.145Z,5.80
2023-02-04T15:00:22.642Z,5.18
2023-02-04T15:02:49.077Z,5.00
2023-02-04T15:05:15.591Z,4.72
2023-02-04T15:07:42.111Z,5.05
2023-02-04T15:10:09.935Z,5.00
2023-02-04T15:12:37.536Z,5.25
2023-02-04T15:15:05.535Z,5.93
2023-02-04T15:17:32.008Z,5.18
2023-02-04T15:19:58.629Z,5.55
2023-02-04T15:22:25.058Z,5.88
2023-02-04T15:24:51.605Z,5.78
2023-02-04T15:27:18.011Z,5.88
2023-02-04T15:29:44.471Z,5.80
2023-02-04T15:32:10.873Z,6.32
2023-02-04T15:34:38.150Z,5.15
2023-02-04T15:37:04.900Z,5.95
2023-02-04T15:39:31.573Z,4.85
2023-02-04T15:41:58.000Z,5.72
2023-02-04T15:44:26.543Z,5.15
2023-02-04T15:46:54.160Z,4.40
2023-02-04T15:49:21.140Z,5.30
2023-02-04T15:51:47.634Z,4.75
2023-02-04T15:54:14.660Z,4.85
2023-02-04T15:56:41.882Z,4.60
2023-02-04T15:59:08.867Z,5.20
2023-02-04T16:01:35.488Z,5.30
2023-02-04T16:04:02.042Z,4.15
2023-02-04T16:06:28.535Z,4.60
2023-02-04T16:08:54.945Z,4.68
2023-02-04T16:11:21.518Z,5.70
2023-02-04T16:13:47.888Z,5.95
2023-02-04T16:16:14.374Z,7.15
2023-02-04T16:18:41.555Z,6.30
2023-02-04T16:21:07.975Z,6.32
2023-02-04T16:23:34.473Z,10.00
2023-02-04T16:26:00.866Z,13.02
2023-02-04T16:28:27.218Z,14.73
2023-02-04T16:30:53.864Z,19.38
2023-02-04T16:33:20.318Z,21.30
2023-02-04T16:36:01.949Z,20.63
2023-02-04T16:38:29.506Z,13.90
2023-02-04T16:40:56.601Z,12.30
2023-02-04T16:43:23.846Z,12.57
2023-02-04T16:45:50.801Z,8.65
2023-02-04T16:48:17.684Z,8.02
2023-02-04T16:50:44.164Z,7.13
2023-02-04T16:53:15.005Z,21.20
2023-02-04T16:55:45.891Z,23.83
2023-02-04T16:58:15.003Z,28.35
2023-02-04T17:00:44.373Z,21.88
2023-02-04T17:03:12.568Z,19.13
2023-02-04T17:05:39.662Z,21.08
2023-02-04T17:08:07.267Z,13.48
2023-02-04T17:10:53.241Z,8.20
2023-02-04T17:13:20.570Z,7.22
2023-02-04T17:15:47.203Z,8.88
2023-02-04T17:18:13.584Z,10.63
2023-02-04T17:20:40.938Z,11.95
2023-02-04T17:23:07.599Z,10.57
2023-02-04T17:25:34.571Z,9.95
2023-02-04T17:28:01.373Z,11.95
2023-02-04T17:30:28.569Z,10.07
2023-02-04T17:32:54.989Z,8.13
2023-02-04T17:35:21.544Z,8.45
2023-02-04T17:37:47.952Z,7.10
2023-02-04T17:40:14.664Z,8.02
2023-02-04T17:42:41.493Z,8.55
2023-02-04T17:45:10.628Z,7.93
2023-02-04T17:47:38.786Z,8.05
2023-02-04T17:50:09.766Z,7.72
2023-02-04T17:52:37.707Z,7.55
2023-02-04T17:55:15.293Z,7.30
2023-02-04T17:57:41.714Z,7.50
2023-02-04T18:00:17.010Z,7.80
2023-02-04T18:02:46.116Z,6.43
2023-02-04T18:05:19.125Z,6.85
2023-02-04T18:08:12.829Z,7.03
2023-02-04T18:10:42.789Z,6.55
2023-02-04T18:13:24.224Z,7.03
2023-02-04T18:15:56.137Z,6.47
2023-02-04T18:18:35.844Z,7.30
2023-02-04T18:21:26.979Z,6.95
2023-02-04T18:24:11.431Z,6.68
2023-02-04T18:26:44.195Z,7.85
2023-02-04T18:29:27.866Z,7.38
2023-02-04T18:32:22.266Z,9.50
2023-02-04T18:34:54.764Z,9.25
2023-02-04T18:37:33.056Z,8.85
2023-02-04T18:40:08.467Z,9.73
2023-02-04T18:42:38.594Z,11.95
2023-02-04T18:45:26.379Z,11.57
2023-02-04T18:47:58.378Z,11.43
2023-02-04T18:50:33.781Z,11.45
2023-02-04T18:53:01.607Z,8.07
2023-02-04T18:55:37.530Z,9.32
2023-02-04T18:58:32.072Z,8.43
2023-02-04T19:01:01.606Z,7.25
2023-02-04T19:03:31.084Z,7.95
2023-02-04T19:06:00.949Z,8.50
2023-02-04T19:08:45.869Z,7.90
2023-02-04T19:11:35.379Z,9.93
2023-02-04T19:14:03.086Z,8.55
2023-02-04T19:16:36.754Z,11.68
2023-02-04T19:19:29.191Z,9.77
2023-02-04T19:21:55.926Z,9.10
2023-02-04T19:24:26.642Z,8.27
2023-02-04T19:27:01.755Z,9.05
2023-02-04T19:29:34.307Z,10.13
2023-02-04T19:32:18.684Z,9.02
2023-02-04T19:34:45.095Z,9.25
2023-02-04T19:37:23.140Z,8.57
2023-02-04T19:39:50.810Z,8.75
2023-02-04T19:42:36.950Z,8.95
2023-02-04T19:45:21.902Z,8.90
2023-02-04T19:47:50.638Z,10.35
2023-02-04T19:50:27.459Z,10.50
2023-02-04T19:52:57.040Z,9.55
2023-02-04T19:55:28.107Z,10.07
2023-02-04T19:57:59.169Z,9.60
2023-02-04T20:00:35.215Z,8.90
2023-02-04T20:03:33.142Z,7.22
2023-02-04T20:06:14.090Z,7.30
2023-02-04T20:09:01.365Z,8.98
2023-02-04T20:11:41.729Z,8.05
2023-02-04T20:14:14.112Z,8.30
2023-02-04T20:16:46.644Z,11.48
2023-02-04T20:19:35.542Z,9.90
2023-02-04T20:22:17.218Z,9.32
2023-02-04T20:24:46.730Z,9.85
2023-02-04T20:27:36.112Z,10.30
2023-02-04T20:30:09.313Z,9.02
2023-02-04T20:32:47.148Z,10.00
2023-02-04T20:35:13.615Z,9.65
2023-02-04T20:37:42.272Z,9.50
2023-02-04T20:40:23.395Z,9.18
2023-02-04T20:42:59.768Z,9.55
2023-02-04T20:45:32.735Z,9.23
2023-02-04T20:48:18.052Z,9.30
2023-02-04T20:50:46.393Z,17.33
2023-02-04T20:53:20.436Z,17.75
2023-02-04T20:55:53.131Z,16.15
2023-02-04T20:58:33.109Z,17.52
2023-02-04T21:00:59.498Z,15.68
2023-02-04T21:03:30.237Z,12.95
2023-02-04T21:05:58.753Z,12.68
2023-02-04T21:08:27.928Z,11.80
2023-02-04T21:10:54.698Z,12.57
2023-02-04T21:13:21.212Z,13.32
2023-02-04T21:15:47.869Z,12.80
2023-02-04T21:18:14.436Z,12.50
2023-02-04T21:20:40.836Z,12.25
2023-02-04T21:23:07.844Z,12.50
2023-02-04T21:25:34.658Z,11.13
2023-02-04T21:28:01.365Z,11.75
2023-02-04T21:30:30.263Z,11.15
2023-02-04T21:32:57.951Z,11.60
2023-02-04T21:35:24.625Z,10.43
2023-02-04T21:37:52.009Z,13.05
2023-02-04T21:40:21.824Z,12.55
2023-02-04T21:42:49.379Z,13.20
2023-02-04T21:45:19.931Z,14.25
2023-02-04T21:47:47.625Z,13.48
2023-02-04T21:50:16.150Z,13.55
2023-02-04T21:52:42.973Z,14.90
2023-02-04T21:55:10.979Z,13.55
2023-02-04T21:57:37.973Z,12.82
2023-02-04T22:00:06.814Z,13.18
2023-02-04T22:02:33.714Z,12.27
2023-02-04T22:05:00.615Z,11.07
2023-02-04T22:07:27.214Z,12.07
2023-02-04T22:09:53.591Z,11.32
2023-02-04T22:12:20.241Z,13.43
2023-02-04T22:15:05.507Z,10.88
2023-02-04T22:17:32.521Z,10.63
2023-02-04T22:19:59.199Z,11.00
2023-02-04T22:22:25.679Z,10.48
2023-02-04T22:24:52.311Z,11.23
2023-02-04T22:27:19.025Z,11.32
2023-02-04T22:29:45.632Z,10.60
2023-02-04T22:32:12.003Z,11.63
2023-02-04T22:34:38.418Z,11.95
2023-02-04T22:37:05.029Z,11.82
2023-02-04T22:39:31.474Z,11.93
2023-02-04T22:41:58.120Z,11.25
2023-02-04T22:44:24.869Z,8.60
2023-02-04T22:46:51.576Z,9.00
2023-02-04T22:49:17.999Z,9.23
2023-02-04T22:51:44.515Z,9.23
2023-02-04T22:54:11.307Z,12.13
2023-02-04T22:56:37.850Z,11.77
2023-02-04T22:59:04.237Z,13.52
2023-02-04T23:01:30.628Z,13.45
2023-02-04T23:03:57.059Z,11.27
2023-02-04T23:06:23.770Z,9.35
2023-02-04T23:08:50.259Z,9.80
2023-02-04T23:11:18.453Z,10.77
2023-02-04T23:13:46.208Z,10.57
2023-02-04T23:16:12.731Z,10.98
2023-02-04T23:18:39.178Z,10.85
2023-02-04T23:21:06.068Z,10.93
2023-02-04T23:23:33.134Z,10.23
2023-02-04T23:26:03.257Z,11.15
2023-02-04T23:28:31.099Z,11.20
2023-02-04T23:30:58.086Z,11.30
2023-02-04T23:33:25.008Z,11.75
2023-02-04T23:35:51.782Z,9.93
2023-02-04T23:38:18.486Z,10.43
2023-02-04T23:40:44.973Z,10.20
2023-02-04T23:43:11.683Z,10.10
2023-02-04T23:45:38.239Z,10.90
2023-02-04T23:48:05.489Z,10.75
2023-02-04T23:50:31.926Z,9.73
2023-02-04T23:52:58.403Z,8.75
2023-02-04T23:55:25.121Z,9.25
2023-02-04T23:57:51.807Z,10.27
